createdAt,value
2019-01-25T00:01:09.883Z,100653.00
2019-01-25T00:03:40.863Z,100647.00
2019-01-25T00:06:12.670Z,100651.00
2019-01-25T00:08:43.667Z,100640.00
2019-01-25T00:11:14.901Z,100644.00
2019-01-25T00:13:46.055Z,100644.00
2019-01-25T00:16:17.187Z,100646.00
2019-01-25T00:18:48.397Z,100642.00
2019-01-25T00:21:21.565Z,100642.00
2019-01-25T00:23:52.702Z,100646.00
2019-01-25T00:26:24.702Z,100645.00
2019-01-25T00:28:55.641Z,100642.00
2019-01-25T00:31:26.614Z,100628.00
2019-01-25T00:33:57.525Z,100630.00
2019-01-25T00:36:28.537Z,100641.00
2019-01-25T00:38:59.484Z,100648.00
2019-01-25T00:41:30.516Z,100647.00
2019-01-25T00:44:01.441Z,100643.00
2019-01-25T00:46:32.551Z,100644.00
2019-01-25T00:49:03.572Z,100632.00
2019-01-25T00:51:34.648Z,100641.00
2019-01-25T00:54:06.410Z,100638.00
2019-01-25T00:56:37.514Z,100645.00
2019-01-25T00:59:08.476Z,100633.00
2019-01-25T01:01:39.620Z,100640.00
2019-01-25T01:04:10.516Z,100649.00
2019-01-25T01:06:41.658Z,100646.00
2019-01-25T01:09:13.448Z,100639.00
2019-01-25T01:11:44.520Z,100639.00
2019-01-25T01:14:15.444Z,100637.00
2019-01-25T01:16:46.461Z,100633.00
2019-01-25T01:19:17.414Z,100643.00
2019-01-25T01:21:48.485Z,100646.00
2019-01-25T01:24:19.363Z,100647.00
2019-01-25T01:26:50.281Z,100655.00
2019-01-25T01:29:21.227Z,100652.00
2019-01-25T01:31:52.235Z,100656.00
2019-01-25T01:34:23.111Z,100658.00
2019-01-25T01:36:54.134Z,100655.00
2019-01-25T01:39:25.195Z,100652.00
2019-01-25T01:41:56.135Z,100655.00
2019-01-25T01:44:27.023Z,100648.00
2019-01-25T01:47:00.230Z,100649.00
2019-01-25T01:49:31.293Z,100654.00
2019-01-25T01:52:02.497Z,100649.00
2019-01-25T01:54:33.573Z,100647.00
2019-01-25T01:57:04.832Z,100641.00
2019-01-25T01:59:36.951Z,100644.00
2019-01-25T02:02:08.238Z,100647.00
2019-01-25T02:04:39.119Z,100650.00
2019-01-25T02:07:10.352Z,100649.00
2019-01-25T02:09:41.345Z,100647.00
2019-01-25T02:12:12.425Z,100647.00
2019-01-25T02:14:43.395Z,100644.00
2019-01-25T02:17:14.427Z,100642.00
2019-01-25T02:19:45.509Z,100636.00
2019-01-25T02:22:16.469Z,100649.00
2019-01-25T02:24:47.473Z,100638.00
2019-01-25T02:27:18.955Z,100637.00
2019-01-25T02:29:49.903Z,100636.00
2019-01-25T02:32:20.965Z,100638.00
2019-01-25T02:34:51.882Z,100643.00
2019-01-25T02:37:22.881Z,100645.00
2019-01-25T02:39:53.871Z,100643.00
2019-01-25T02:42:24.891Z,100643.00
2019-01-25T02:44:55.763Z,100640.00
2019-01-25T02:47:26.777Z,100640.00
2019-01-25T02:49:57.851Z,100644.00
2019-01-25T02:52:28.875Z,100648.00
2019-01-25T02:54:59.726Z,100637.00
2019-01-25T02:57:30.625Z,100640.00
2019-01-25T03:00:01.579Z,100637.00
2019-01-25T03:02:32.883Z,100629.00
2019-01-25T03:05:04.195Z,100628.00
2019-01-25T03:07:35.131Z,100620.00
2019-01-25T03:10:09.623Z,100622.00
2019-01-25T03:12:42.979Z,100619.00
2019-01-25T03:15:17.551Z,100621.00
2019-01-25T03:17:48.773Z,100630.00
2019-01-25T03:20:21.608Z,100624.00
2019-01-25T03:22:52.745Z,100638.00
2019-01-25T03:25:26.750Z,100634.00
2019-01-25T03:27:57.816Z,100631.00
2019-01-25T03:30:28.954Z,100631.00
2019-01-25T03:32:59.881Z,100635.00
2019-01-25T03:35:44.444Z,100630.00
2019-01-25T03:38:15.448Z,100627.00
2019-01-25T03:40:55.005Z,100626.00
2019-01-25T03:43:21.096Z,100626.00
2019-01-25T03:45:52.368Z,100637.00
2019-01-25T03:48:23.536Z,100641.00
2019-01-25T03:50:54.686Z,100639.00
2019-01-25T03:53:28.658Z,100640.00
2019-01-25T03:55:59.831Z,100639.00
2019-01-25T03:58:30.957Z,100637.00
2019-01-25T04:01:01.970Z,100641.00
2019-01-25T04:03:32.947Z,100647.00
2019-01-25T04:06:04.396Z,100648.00
2019-01-25T04:08:35.336Z,100633.00
2019-01-25T04:11:18.790Z,100632.00
2019-01-25T04:13:49.790Z,100630.00
2019-01-25T04:16:21.098Z,100628.00
2019-01-25T04:18:52.114Z,100624.00
2019-01-25T04:21:23.034Z,100636.00
2019-01-25T04:23:55.548Z,100632.00
2019-01-25T04:26:26.832Z,100629.00
2019-01-25T04:28:59.047Z,100637.00
2019-01-25T04:31:42.252Z,100645.00
2019-01-25T04:34:13.230Z,100647.00
2019-01-25T04:36:44.166Z,100648.00
2019-01-25T04:39:15.089Z,100645.00
2019-01-25T04:41:46.160Z,100652.00
2019-01-25T04:44:17.079Z,100652.00
2019-01-25T04:46:47.958Z,100644.00
2019-01-25T04:49:19.260Z,100652.00
2019-01-25T04:51:50.515Z,100656.00
2019-01-25T04:54:21.488Z,100663.00
2019-01-25T04:56:52.502Z,100655.00
2019-01-25T04:59:29.717Z,100649.00
2019-01-25T05:02:01.828Z,100653.00
2019-01-25T05:04:36.877Z,100651.00
2019-01-25T05:07:08.131Z,100645.00
2019-01-25T05:09:41.118Z,100654.00
2019-01-25T05:12:12.098Z,100651.00
2019-01-25T05:15:03.515Z,100661.00
2019-01-25T05:17:37.437Z,100657.00
2019-01-25T05:20:08.953Z,100656.00
2019-01-25T05:22:39.923Z,100664.00
2019-01-25T05:25:11.179Z,100658.00
2019-01-25T05:27:42.097Z,100665.00
2019-01-25T05:30:13.356Z,100661.00
2019-01-25T05:32:44.338Z,100661.00
2019-01-25T05:35:15.916Z,100660.00
2019-01-25T05:37:46.932Z,100660.00
2019-01-25T05:40:24.000Z,100662.00
2019-01-25T05:42:55.033Z,100660.00
2019-01-25T05:45:26.104Z,100664.00
2019-01-25T05:47:57.029Z,100665.00
2019-01-25T05:50:28.042Z,100664.00
2019-01-25T05:52:59.121Z,100669.00
2019-01-25T05:55:30.128Z,100668.00
2019-01-25T05:58:02.609Z,100691.00
2019-01-25T06:00:36.410Z,100667.00
2019-01-25T06:03:13.054Z,100672.00
2019-01-25T06:05:46.640Z,100661.00
2019-01-25T06:08:33.703Z,100659.00
2019-01-25T06:11:13.300Z,100676.00
2019-01-25T06:13:47.204Z,100676.00
2019-01-25T06:16:18.592Z,100672.00
2019-01-25T06:18:51.186Z,100660.00
2019-01-25T06:21:22.329Z,100660.00
2019-01-25T06:23:55.671Z,100662.00
2019-01-25T06:26:27.137Z,100665.00
2019-01-25T06:28:58.062Z,100666.00
2019-01-25T06:31:28.994Z,100656.00
2019-01-25T06:33:59.906Z,100650.00
2019-01-25T06:36:30.910Z,100654.00
2019-01-25T06:39:01.989Z,100669.00
2019-01-25T06:41:34.315Z,100664.00
2019-01-25T06:44:06.035Z,100659.00
2019-01-25T06:46:36.926Z,100654.00
2019-01-25T06:49:07.975Z,100658.00
2019-01-25T06:51:38.910Z,100662.00
2019-01-25T06:54:09.846Z,100659.00
2019-01-25T06:56:40.835Z,100661.00
2019-01-25T06:59:15.316Z,100658.00
2019-01-25T07:02:08.379Z,100653.00
2019-01-25T07:04:39.403Z,100656.00
2019-01-25T07:07:30.750Z,100645.00
2019-01-25T07:10:01.726Z,100645.00
2019-01-25T07:12:32.861Z,100649.00
2019-01-25T07:15:05.504Z,100643.00
2019-01-25T07:17:36.589Z,100646.00
2019-01-25T07:20:11.121Z,100645.00
2019-01-25T07:22:42.148Z,100646.00
2019-01-25T07:25:13.913Z,100638.00
2019-01-25T07:27:45.052Z,100636.00
2019-01-25T07:30:16.453Z,100636.00
2019-01-25T07:32:47.528Z,100640.00
2019-01-25T07:35:18.620Z,100653.00
2019-01-25T07:37:50.649Z,100651.00
2019-01-25T07:40:21.699Z,100657.00
2019-01-25T07:42:52.614Z,100665.00
2019-01-25T07:45:23.701Z,100662.00
2019-01-25T07:47:54.741Z,100655.00
2019-01-25T07:50:35.796Z,100660.00
2019-01-25T07:53:11.995Z,100665.00
2019-01-25T07:55:42.982Z,100656.00
2019-01-25T07:58:14.020Z,100662.00
2019-01-25T08:00:44.958Z,100657.00
2019-01-25T08:03:15.991Z,100662.00
2019-01-25T08:05:47.133Z,100655.00
2019-01-25T08:08:18.592Z,100653.00
2019-01-25T08:10:49.543Z,100655.00
2019-01-25T08:13:20.564Z,100662.00
2019-01-25T08:15:51.506Z,100666.00
2019-01-25T08:18:24.334Z,100662.00
2019-01-25T08:20:55.202Z,100645.00
2019-01-25T08:23:26.373Z,100638.00
2019-01-25T08:25:57.707Z,100641.00
2019-01-25T08:28:28.696Z,100648.00
2019-01-25T08:30:59.875Z,100654.00
2019-01-25T08:33:30.836Z,100658.00
2019-01-25T08:36:01.773Z,100655.00
2019-01-25T08:38:32.961Z,100641.00
2019-01-25T08:41:07.320Z,100645.00
2019-01-25T08:43:38.572Z,100637.00
2019-01-25T08:46:09.710Z,100646.00
2019-01-25T08:48:40.936Z,100650.00
2019-01-25T08:51:12.156Z,100650.00
2019-01-25T08:53:43.408Z,100651.00
2019-01-25T08:56:14.541Z,100655.00
2019-01-25T08:58:45.661Z,100652.00
2019-01-25T09:01:28.736Z,100658.00
2019-01-25T09:03:59.746Z,100655.00
2019-01-25T09:06:30.973Z,100655.00
2019-01-25T09:09:02.021Z,100655.00
2019-01-25T09:11:34.248Z,100655.00
2019-01-25T09:14:05.638Z,100657.00
2019-01-25T09:16:37.104Z,100657.00
2019-01-25T09:19:09.224Z,100646.00
2019-01-25T09:21:40.374Z,100647.00
2019-01-25T09:24:11.411Z,100643.00
2019-01-25T09:26:42.280Z,100651.00
2019-01-25T09:29:13.405Z,100663.00
2019-01-25T09:31:44.404Z,100670.00
2019-01-25T09:34:15.600Z,100674.00
2019-01-25T09:36:49.719Z,100662.00
2019-01-25T09:39:20.838Z,100664.00
2019-01-25T09:41:51.898Z,100668.00
2019-01-25T09:44:23.895Z,100668.00
2019-01-25T09:46:54.934Z,100664.00
2019-01-25T09:49:25.996Z,100665.00
2019-01-25T09:51:56.908Z,100667.00
2019-01-25T09:54:27.869Z,100663.00
2019-01-25T09:56:58.896Z,100649.00
2019-01-25T09:59:29.813Z,100647.00
2019-01-25T10:02:00.758Z,100636.00
2019-01-25T10:04:34.607Z,100636.00
2019-01-25T10:07:05.759Z,100627.00
2019-01-25T10:09:36.718Z,100626.00
2019-01-25T10:12:07.806Z,100631.00
2019-01-25T10:14:38.745Z,100622.00
2019-01-25T10:17:09.612Z,100616.00
2019-01-25T10:19:40.592Z,100616.00
2019-01-25T10:22:11.588Z,100627.00
2019-01-25T10:24:42.528Z,100625.00
2019-01-25T10:27:13.549Z,100625.00
2019-01-25T10:29:44.660Z,100625.00
2019-01-25T10:32:15.610Z,100621.00
2019-01-25T10:34:46.690Z,100620.00
2019-01-25T10:37:17.567Z,100614.00
2019-01-25T10:39:48.489Z,100619.00
2019-01-25T10:42:19.544Z,100611.00
2019-01-25T10:44:50.503Z,100601.00
2019-01-25T10:47:21.420Z,100595.00
2019-01-25T10:49:52.300Z,100586.00
2019-01-25T10:52:23.170Z,100595.00
2019-01-25T10:54:54.147Z,100586.00
2019-01-25T10:57:25.164Z,100593.00
2019-01-25T10:59:58.028Z,100579.00
2019-01-25T11:02:29.394Z,100578.00
2019-01-25T11:05:00.677Z,100577.00
2019-01-25T11:07:31.931Z,100569.00
2019-01-25T11:10:03.161Z,100560.00
2019-01-25T11:12:35.462Z,100573.00
2019-01-25T11:15:11.738Z,100567.00
2019-01-25T11:17:42.802Z,100557.00
2019-01-25T11:20:17.466Z,100551.00
2019-01-25T11:22:48.816Z,100554.00
2019-01-25T11:25:30.392Z,100543.00
2019-01-25T11:28:01.578Z,100536.00
2019-01-25T11:30:32.925Z,100546.00
2019-01-25T11:33:05.653Z,100541.00
2019-01-25T11:35:36.894Z,100536.00
2019-01-25T11:38:07.902Z,100539.00
2019-01-25T11:40:42.382Z,100531.00
2019-01-25T11:43:13.390Z,100531.00
2019-01-25T11:45:44.925Z,100530.00
2019-01-25T11:48:16.427Z,100530.00
2019-01-25T11:50:47.458Z,100525.00
2019-01-25T11:53:18.419Z,100530.00
2019-01-25T11:55:49.572Z,100527.00
2019-01-25T11:58:20.531Z,100517.00
2019-01-25T12:00:51.757Z,100515.00
2019-01-25T12:03:22.743Z,100512.00
2019-01-25T12:05:53.833Z,100516.00
2019-01-25T12:08:25.329Z,100516.00
2019-01-25T12:10:56.299Z,100518.00
2019-01-25T12:13:27.316Z,100512.00
2019-01-25T12:15:58.400Z,100516.00
2019-01-25T12:18:29.605Z,100510.00
2019-01-25T12:21:02.463Z,100518.00
2019-01-25T12:23:33.871Z,100506.00
2019-01-25T12:26:04.897Z,100499.00
2019-01-25T12:28:35.898Z,100491.00
2019-01-25T12:31:06.951Z,100501.00
2019-01-25T12:33:37.853Z,100493.00
2019-01-25T12:36:09.237Z,100496.00
2019-01-25T12:38:40.033Z,100497.00
2019-01-25T12:41:11.064Z,100484.00
2019-01-25T12:43:42.382Z,100480.00
2019-01-25T12:46:13.371Z,100474.00
2019-01-25T12:48:44.806Z,100468.00
2019-01-25T12:51:28.191Z,100470.00
2019-01-25T12:53:59.121Z,100470.00
2019-01-25T12:56:30.209Z,100471.00
2019-01-25T12:59:01.197Z,100461.00
2019-01-25T13:01:35.019Z,100463.00
2019-01-25T13:04:05.116Z,100458.00
2019-01-25T13:06:36.069Z,100464.00
2019-01-25T13:09:10.817Z,100462.00
2019-01-25T13:11:41.946Z,100456.00
2019-01-25T13:14:12.835Z,100464.00
2019-01-25T13:16:47.983Z,100461.00
2019-01-25T13:19:23.855Z,100455.00
2019-01-25T13:21:55.257Z,100449.00
2019-01-25T13:24:26.455Z,100458.00
2019-01-25T13:26:57.806Z,100453.00
2019-01-25T13:29:28.847Z,100448.00
2019-01-25T13:31:59.821Z,100438.00
2019-01-25T13:34:31.294Z,100434.00
2019-01-25T13:37:02.725Z,100436.00
2019-01-25T13:39:33.907Z,100432.00
2019-01-25T13:42:05.017Z,100432.00
2019-01-25T13:44:36.439Z,100428.00
2019-01-25T13:47:07.574Z,100424.00
2019-01-25T13:49:38.545Z,100429.00
2019-01-25T13:52:09.697Z,100429.00
2019-01-25T13:54:40.750Z,100427.00
2019-01-25T13:57:11.797Z,100415.00
2019-01-25T13:59:42.689Z,100419.00
2019-01-25T14:02:13.765Z,100415.00
2019-01-25T14:04:44.657Z,100411.00
2019-01-25T14:07:20.961Z,100412.00
2019-01-25T14:09:49.566Z,100405.00
2019-01-25T14:12:20.499Z,100403.00
2019-01-25T14:14:52.617Z,100406.00
2019-01-25T14:17:24.655Z,100397.00
2019-01-25T14:19:55.731Z,100398.00
2019-01-25T14:22:29.796Z,100394.00
2019-01-25T14:25:00.884Z,100406.00
2019-01-25T14:27:31.983Z,100401.00
2019-01-25T14:30:03.317Z,100397.00
2019-01-25T14:32:34.518Z,100396.00
2019-01-25T14:35:07.499Z,100399.00
2019-01-25T14:37:38.859Z,100400.00
2019-01-25T14:40:10.034Z,100394.00
2019-01-25T14:42:41.285Z,100401.00
2019-01-25T14:45:25.593Z,100407.00
2019-01-25T14:47:56.669Z,100400.00
2019-01-25T14:50:28.958Z,100391.00
2019-01-25T14:53:00.562Z,100395.00
2019-01-25T14:55:31.672Z,100382.00
2019-01-25T14:58:04.082Z,100396.00
2019-01-25T15:00:35.611Z,100383.00
2019-01-25T15:03:07.528Z,100374.00
2019-01-25T15:05:38.680Z,100404.00
2019-01-25T15:08:12.816Z,100368.00
2019-01-25T15:10:43.958Z,100368.00
2019-01-25T15:13:15.031Z,100371.00
2019-01-25T15:15:46.144Z,100379.00
2019-01-25T15:18:20.474Z,100362.00
2019-01-25T15:20:52.598Z,100376.00
2019-01-25T15:23:23.829Z,100367.00
2019-01-25T15:25:54.880Z,100372.00
2019-01-25T15:28:25.871Z,100376.00
2019-01-25T15:30:56.912Z,100371.00
2019-01-25T15:33:28.012Z,100376.00
2019-01-25T15:35:59.033Z,100362.00
2019-01-25T15:38:30.104Z,100371.00
2019-01-25T15:41:01.275Z,100359.00
2019-01-25T15:43:32.302Z,100364.00
2019-01-25T15:46:03.467Z,100354.00
2019-01-25T15:48:34.748Z,100350.00
2019-01-25T15:51:06.005Z,100234.00
2019-01-25T15:53:36.935Z,100337.00
2019-01-25T15:56:08.037Z,100345.00
2019-01-25T15:58:39.132Z,100345.00
2019-01-25T16:01:10.196Z,100342.00
2019-01-25T16:03:41.676Z,100341.00
2019-01-25T16:06:12.574Z,100333.00
2019-01-25T16:08:43.500Z,100344.00
2019-01-25T16:11:14.527Z,100349.00
2019-01-25T16:13:45.600Z,100342.00
2019-01-25T16:16:18.554Z,100365.00
2019-01-25T16:18:49.672Z,100357.00
2019-01-25T16:21:25.790Z,100370.00
2019-01-25T16:23:58.609Z,100373.00
2019-01-25T16:26:29.806Z,100367.00
2019-01-25T16:29:00.798Z,100355.00
2019-01-25T16:31:31.837Z,100348.00
2019-01-25T16:34:03.160Z,100324.00
2019-01-25T16:36:34.102Z,100334.00
2019-01-25T16:39:08.834Z,100335.00
2019-01-25T16:41:40.452Z,100341.00
2019-01-25T16:44:11.624Z,100346.00
2019-01-25T16:46:43.611Z,100332.00
2019-01-25T16:49:16.415Z,100339.00
2019-01-25T16:51:47.277Z,100326.00
2019-01-25T16:54:18.234Z,100319.00
2019-01-25T16:56:50.540Z,100309.00
2019-01-25T16:59:21.996Z,100312.00
2019-01-25T17:01:53.405Z,100297.00
2019-01-25T17:04:25.054Z,100307.00
2019-01-25T17:06:56.385Z,100314.00
2019-01-25T17:09:28.243Z,100303.00
2019-01-25T17:11:59.605Z,100308.00
2019-01-25T17:14:33.543Z,100312.00
2019-01-25T17:17:04.744Z,100314.00
2019-01-25T17:19:35.854Z,100312.00
2019-01-25T17:22:09.412Z,100300.00
2019-01-25T17:24:40.515Z,100299.00
2019-01-25T17:27:11.618Z,100297.00
2019-01-25T17:29:42.594Z,100283.00
2019-01-25T17:32:13.655Z,100278.00
2019-01-25T17:34:44.792Z,100256.00
2019-01-25T17:37:17.099Z,100248.00
2019-01-25T17:39:48.223Z,100241.00
2019-01-25T17:42:19.260Z,100234.00
2019-01-25T17:44:50.234Z,100237.00
2019-01-25T17:47:21.214Z,100244.00
2019-01-25T17:49:52.247Z,100229.00
2019-01-25T17:52:24.304Z,100233.00
2019-01-25T17:54:55.234Z,100220.00
2019-01-25T17:57:26.413Z,100211.00
2019-01-25T17:59:58.410Z,100203.00
2019-01-25T18:02:29.437Z,100189.00
2019-01-25T18:05:00.385Z,100180.00
2019-01-25T18:07:31.345Z,100163.00
2019-01-25T18:10:02.361Z,100159.00
2019-01-25T18:12:35.636Z,100155.00
2019-01-25T18:15:08.713Z,100157.00
2019-01-25T18:17:39.814Z,100151.00
2019-01-25T18:20:14.274Z,100138.00
2019-01-25T18:22:45.641Z,100129.00
2019-01-25T18:25:24.281Z,100124.00
2019-01-25T18:28:00.409Z,100124.00
2019-01-25T18:30:47.573Z,100125.00
2019-01-25T18:33:18.828Z,100119.00
2019-01-25T18:35:49.917Z,100107.00
2019-01-25T18:38:20.945Z,100092.00
2019-01-25T18:40:51.956Z,100088.00
2019-01-25T18:43:22.928Z,100077.00
2019-01-25T18:45:53.953Z,100070.00
2019-01-25T18:48:24.968Z,100062.00
2019-01-25T18:50:55.942Z,100060.00
2019-01-25T18:53:26.921Z,100055.00
2019-01-25T18:55:58.008Z,100054.00
2019-01-25T18:58:29.036Z,100047.00
2019-01-25T19:01:00.080Z,100047.00
2019-01-25T19:03:31.063Z,100044.00
2019-01-25T19:06:02.211Z,100033.00
2019-01-25T19:08:35.346Z,100030.00
2019-01-25T19:11:06.468Z,100030.00
2019-01-25T19:13:37.442Z,100019.00
2019-01-25T19:16:12.601Z,100008.00
2019-01-25T19:18:43.668Z,100006.00
2019-01-25T19:21:14.845Z,100002.00
2019-01-25T19:23:45.885Z,100001.00
2019-01-25T19:26:16.950Z,99995.00
2019-01-25T19:28:48.276Z,99984.00
2019-01-25T19:31:32.879Z,99987.00
2019-01-25T19:34:04.038Z,99979.00
2019-01-25T19:36:39.508Z,99976.00
2019-01-25T19:39:18.469Z,99985.00
2019-01-25T19:41:52.774Z,99970.00
2019-01-25T19:44:24.865Z,99949.00
2019-01-25T19:46:56.278Z,99943.00
2019-01-25T19:49:27.635Z,99939.00
2019-01-25T19:51:59.127Z,99937.00
2019-01-25T19:54:32.938Z,99941.00
2019-01-25T19:57:04.293Z,99939.00
2019-01-25T19:59:36.535Z,99937.00
2019-01-25T20:02:08.481Z,99928.00
2019-01-25T20:04:39.627Z,99927.00
2019-01-25T20:07:11.524Z,99914.00
2019-01-25T20:09:42.476Z,99907.00
2019-01-25T20:12:13.645Z,99904.00
2019-01-25T20:14:45.164Z,99900.00
2019-01-25T20:17:16.355Z,99890.00
2019-01-25T20:19:47.250Z,99890.00
2019-01-25T20:22:18.428Z,99891.00
2019-01-25T20:24:49.826Z,99869.00
2019-01-25T20:27:21.087Z,99874.00
2019-01-25T20:29:52.216Z,99874.00
2019-01-25T20:32:24.337Z,99871.00
2019-01-25T20:34:55.604Z,99862.00
2019-01-25T20:37:26.657Z,99848.00
2019-01-25T20:39:57.721Z,99853.00
2019-01-25T20:42:28.844Z,99846.00
2019-01-25T20:45:01.116Z,99845.00
2019-01-25T20:47:33.345Z,99843.00
2019-01-25T20:50:08.359Z,99839.00
2019-01-25T20:52:42.488Z,99840.00
2019-01-25T20:55:17.071Z,99828.00
2019-01-25T20:57:48.340Z,99831.00
2019-01-25T21:00:23.613Z,99834.00
2019-01-25T21:02:55.033Z,99782.00
2019-01-25T21:05:26.169Z,99825.00
2019-01-25T21:07:57.406Z,99799.00
2019-01-25T21:10:28.450Z,99799.00
2019-01-25T21:12:59.444Z,99797.00
2019-01-25T21:15:35.328Z,99786.00
2019-01-25T21:18:09.133Z,99774.00
2019-01-25T21:20:46.748Z,99777.00
2019-01-25T21:23:17.947Z,99769.00
2019-01-25T21:25:49.480Z,99763.00
2019-01-25T21:28:21.323Z,99753.00
2019-01-25T21:30:53.542Z,99737.00
2019-01-25T21:33:24.582Z,99752.00
2019-01-25T21:35:56.243Z,99741.00
2019-01-25T21:38:27.280Z,99730.00
2019-01-25T21:40:58.421Z,99727.00
2019-01-25T21:43:29.749Z,99728.00
2019-01-25T21:46:01.018Z,99720.00
2019-01-25T21:48:33.272Z,99716.00
2019-01-25T21:51:04.793Z,99720.00
2019-01-25T21:53:35.927Z,99720.00
2019-01-25T21:56:07.141Z,99715.00
2019-01-25T21:58:38.226Z,99710.00
2019-01-25T22:01:09.462Z,99699.00
2019-01-25T22:03:40.504Z,99700.00
2019-01-25T22:06:12.264Z,99697.00
2019-01-25T22:08:44.092Z,99695.00
2019-01-25T22:11:15.472Z,99695.00
2019-01-25T22:13:52.754Z,99686.00
2019-01-25T22:16:21.759Z,99677.00
2019-01-25T22:18:52.866Z,99668.00
2019-01-25T22:21:24.731Z,99662.00
2019-01-25T22:23:55.803Z,99654.00
2019-01-25T22:26:26.953Z,99648.00
2019-01-25T22:28:58.114Z,99631.00
2019-01-25T22:31:29.681Z,99614.00
2019-01-25T22:34:00.694Z,99619.00
2019-01-25T22:36:31.605Z,99621.00
2019-01-25T22:39:03.099Z,99629.00
2019-01-25T22:41:35.843Z,99638.00
2019-01-25T22:44:06.906Z,99635.00
2019-01-25T22:46:37.812Z,99641.00
2019-01-25T22:49:08.902Z,99626.00
2019-01-25T22:51:39.884Z,99622.00
2019-01-25T22:54:11.051Z,99623.00
2019-01-25T22:56:42.079Z,99611.00
2019-01-25T22:59:13.135Z,99607.00
2019-01-25T23:01:44.558Z,99600.00
2019-01-25T23:04:45.270Z,99597.00
2019-01-25T23:07:21.080Z,99594.00
2019-01-25T23:10:01.680Z,99589.00
2019-01-25T23:12:33.243Z,99578.00
2019-01-25T23:15:04.592Z,99581.00
2019-01-25T23:17:35.809Z,99579.00
2019-01-25T23:22:43.139Z,99567.00
2019-01-25T23:25:14.794Z,99549.00
2019-01-25T23:27:46.088Z,99548.00
2019-01-25T23:30:18.947Z,99539.00
2019-01-25T23:32:49.847Z,99534.00
2019-01-25T23:35:20.972Z,99545.00
2019-01-25T23:37:51.882Z,99547.00
2019-01-25T23:40:23.097Z,99541.00
2019-01-25T23:42:54.208Z,99542.00
2019-01-25T23:45:25.363Z,99526.00
2019-01-25T23:47:56.400Z,99507.00
2019-01-25T23:50:30.911Z,99520.00
2019-01-25T23:53:02.166Z,99519.00
2019-01-25T23:55:33.879Z,99505.00
2019-01-25T23:58:05.226Z,99518.00
